sensor_id;sensor_type;location;lat;lon;timestamp;pressure;altitude;pressure_sealevel;temperature;humidity
32131;BME280;18639;50.716;7.086;2023-03-20T00:01:59;100711.34;;;9.92;100.00
32131;BME280;18639;50.716;7.086;2023-03-20T00:04:25;100675.84;;;9.65;100.00
32131;BME280;18639;50.716;7.086;2023-03-20T00:06:50;100721.09;;;9.87;100.00
32131;BME280;18639;50.716;7.086;2023-03-20T00:09:15;100727.75;;;9.91;100.00
32131;BME280;18639;50.716;7.086;2023-03-20T00:11:46;100730.13;;;9.94;100.00
32131;BME280;18639;50.716;7.086;2023-03-20T00:14:14;100736.25;;;9.93;100.00
32131;BME280;18639;50.716;7.086;2023-03-20T00:16:42;100735.31;;;9.94;100.00
32131;BME280;18639;50.716;7.086;2023-03-20T00:19:16;100740.56;;;9.92;100.00
32131;BME280;18639;50.716;7.086;2023-03-20T00:21:42;100740.72;;;9.89;100.00
32131;BME280;18639;50.716;7.086;2023-03-20T00:24:10;100748.38;;;9.91;100.00
32131;BME280;18639;50.716;7.086;2023-03-20T00:26:35;100750.22;;;9.89;100.00
32131;BME280;18639;50.716;7.086;2023-03-20T00:29:03;100738.59;;;9.82;100.00
32131;BME280;18639;50.716;7.086;2023-03-20T00:31:35;100748.56;;;9.88;100.00
32131;BME280;18639;50.716;7.086;2023-03-20T00:34:08;100748.56;;;9.88;100.00
32131;BME280;18639;50.716;7.086;2023-03-20T00:36:35;100737.16;;;9.76;100.00
32131;BME280;18639;50.716;7.086;2023-03-20T00:39:00;100746.66;;;9.76;100.00
32131;BME280;18639;50.716;7.086;2023-03-20T00:41:32;100763.22;;;9.87;100.00
32131;BME280;18639;50.716;7.086;2023-03-20T00:44:31;100727.91;;;9.56;100.00
32131;BME280;18639;50.716;7.086;2023-03-20T00:47:03;100761.47;;;9.88;100.00
32131;BME280;18639;50.716;7.086;2023-03-20T00:49:32;100750.06;;;9.76;100.00
32131;BME280;18639;50.716;7.086;2023-03-20T00:51:59;100740.16;;;9.68;100.00
32131;BME280;18639;50.716;7.086;2023-03-20T00:54:25;100750.97;;;9.75;100.00
32131;BME280;18639;50.716;7.086;2023-03-20T01:00:25;100769.44;;;9.83;100.00
32131;BME280;18639;50.716;7.086;2023-03-20T01:02:53;100756.06;;;9.77;100.00
32131;BME280;18639;50.716;7.086;2023-03-20T01:05:19;100776.53;;;9.80;100.00
32131;BME280;18639;50.716;7.086;2023-03-20T01:07:45;100775.78;;;9.78;100.00
32131;BME280;18639;50.716;7.086;2023-03-20T01:10:11;100771.03;;;9.70;100.00
32131;BME280;18639;50.716;7.086;2023-03-20T01:12:41;100784.59;;;9.73;100.00
32131;BME280;18639;50.716;7.086;2023-03-20T01:15:17;100782.84;;;9.74;100.00
32131;BME280;18639;50.716;7.086;2023-03-20T01:17:43;100788.03;;;9.74;100.00
32131;BME280;18639;50.716;7.086;2023-03-20T01:20:22;100746.97;;;9.38;100.00
32131;BME280;18639;50.716;7.086;2023-03-20T01:22:47;100775.94;;;9.59;100.00
32131;BME280;18639;50.716;7.086;2023-03-20T01:25:14;100792.66;;;9.67;100.00
32131;BME280;18639;50.716;7.086;2023-03-20T01:27:42;100784.28;;;9.64;100.00
32131;BME280;18639;50.716;7.086;2023-03-20T01:30:16;100752.88;;;9.40;100.00
32131;BME280;18639;50.716;7.086;2023-03-20T01:32:42;100788.78;;;9.60;100.00
32131;BME280;18639;50.716;7.086;2023-03-20T01:35:11;100782.72;;;9.61;100.00
32131;BME280;18639;50.716;7.086;2023-03-20T01:37:37;100769.28;;;9.55;100.00
32131;BME280;18639;50.716;7.086;2023-03-20T01:40:02;100770.44;;;9.49;100.00
32131;BME280;18639;50.716;7.086;2023-03-20T01:42:28;100768.72;;;9.50;100.00
32131;BME280;18639;50.716;7.086;2023-03-20T01:44:54;100757.69;;;9.46;100.00
32131;BME280;18639;50.716;7.086;2023-03-20T01:47:22;100775.88;;;9.60;100.00
32131;BME280;18639;50.716;7.086;2023-03-20T01:50:17;100763.72;;;9.62;100.00
32131;BME280;18639;50.716;7.086;2023-03-20T01:52:44;100763.06;;;9.59;100.00
32131;BME280;18639;50.716;7.086;2023-03-20T01:55:10;100752.31;;;9.51;100.00
32131;BME280;18639;50.716;7.086;2023-03-20T01:57:36;100716.75;;;9.24;100.00
32131;BME280;18639;50.716;7.086;2023-03-20T02:00:10;100757.06;;;9.58;100.00
32131;BME280;18639;50.716;7.086;2023-03-20T02:02:37;100746.81;;;9.57;100.00
32131;BME280;18639;50.716;7.086;2023-03-20T02:05:07;100756.41;;;9.55;100.00
32131;BME280;18639;50.716;7.086;2023-03-20T02:07:34;100742.53;;;9.40;100.00
32131;BME280;18639;50.716;7.086;2023-03-20T02:10:02;100753.63;;;9.58;100.00
32131;BME280;18639;50.716;7.086;2023-03-20T02:12:27;100722.66;;;9.42;100.00
32131;BME280;18639;50.716;7.086;2023-03-20T02:14:53;100722.59;;;9.28;100.00
32131;BME280;18639;50.716;7.086;2023-03-20T02:17:19;100754.06;;;9.50;100.00
32131;BME280;18639;50.716;7.086;2023-03-20T02:34:10;100763.81;;;9.45;100.00
32131;BME280;18639;50.716;7.086;2023-03-20T02:39:43;100769.88;;;9.44;100.00
32131;BME280;18639;50.716;7.086;2023-03-20T02:42:20;100763.88;;;9.44;100.00
32131;BME280;18639;50.716;7.086;2023-03-20T02:47:31;100763.69;;;9.31;100.00
32131;BME280;18639;50.716;7.086;2023-03-20T02:50:09;100743.28;;;9.26;100.00
32131;BME280;18639;50.716;7.086;2023-03-20T02:55:14;100735.38;;;9.29;100.00
32131;BME280;18639;50.716;7.086;2023-03-20T02:57:56;100763.69;;;9.31;100.00
32131;BME280;18639;50.716;7.086;2023-03-20T03:00:33;100762.19;;;9.27;100.00
32131;BME280;18639;50.716;7.086;2023-03-20T03:03:07;100768.25;;;9.26;100.00
32131;BME280;18639;50.716;7.086;2023-03-20T03:08:12;100727.72;;;9.12;100.00
32131;BME280;18639;50.716;7.086;2023-03-20T03:10:46;100738.53;;;9.19;100.00
32131;BME280;18639;50.716;7.086;2023-03-20T03:13:17;100742.34;;;9.12;100.00
32131;BME280;18639;50.716;7.086;2023-03-20T03:15:47;100730.41;;;8.94;100.00
32131;BME280;18639;50.716;7.086;2023-03-20T03:18:18;100763.47;;;9.03;100.00
32131;BME280;18639;50.716;7.086;2023-03-20T03:20:44;100766.25;;;8.98;100.00
32131;BME280;18639;50.716;7.086;2023-03-20T03:23:22;100770.91;;;8.92;100.00
32131;BME280;18639;50.716;7.086;2023-03-20T03:25:49;100761.50;;;8.91;100.00
32131;BME280;18639;50.716;7.086;2023-03-20T03:28:28;100765.75;;;8.92;100.00
32131;BME280;18639;50.716;7.086;2023-03-20T03:30:56;100734.00;;;8.74;100.00
32131;BME280;18639;50.716;7.086;2023-03-20T03:33:29;100757.44;;;8.86;100.00
32131;BME280;18639;50.716;7.086;2023-03-20T03:38:43;100766.78;;;8.87;100.00
32131;BME280;18639;50.716;7.086;2023-03-20T03:41:39;100778.72;;;8.90;100.00
32131;BME280;18639;50.716;7.086;2023-03-20T03:44:26;100776.66;;;8.79;100.00
32131;BME280;18639;50.716;7.086;2023-03-20T03:46:56;100782.44;;;8.84;100.00
32131;BME280;18639;50.716;7.086;2023-03-20T03:49:26;100788.19;;;8.90;100.00
32131;BME280;18639;50.716;7.086;2023-03-20T03:51:56;100755.28;;;8.77;100.00
32131;BME280;18639;50.716;7.086;2023-03-20T03:54:29;100743.19;;;8.79;100.00
32131;BME280;18639;50.716;7.086;2023-03-20T03:56:57;100735.44;;;8.79;100.00
32131;BME280;18639;50.716;7.086;2023-03-20T03:59:46;100734.59;;;8.79;100.00
32131;BME280;18639;50.716;7.086;2023-03-20T04:02:13;100736.81;;;8.69;100.00
32131;BME280;18639;50.716;7.086;2023-03-20T04:04:42;100703.22;;;8.38;100.00
32131;BME280;18639;50.716;7.086;2023-03-20T04:07:09;100727.91;;;8.59;100.00
32131;BME280;18639;50.716;7.086;2023-03-20T04:09:35;100755.75;;;8.68;100.00
32131;BME280;18639;50.716;7.086;2023-03-20T04:12:00;100766.00;;;8.70;100.00
32131;BME280;18639;50.716;7.086;2023-03-20T04:14:26;100769.72;;;8.64;100.00
32131;BME280;18639;50.716;7.086;2023-03-20T04:16:51;100761.44;;;8.58;100.00
32131;BME280;18639;50.716;7.086;2023-03-20T04:19:16;100767.50;;;8.57;100.00
32131;BME280;18639;50.716;7.086;2023-03-20T04:21:41;100767.06;;;8.49;100.00
32131;BME280;18639;50.716;7.086;2023-03-20T04:24:07;100795.78;;;8.58;100.00
32131;BME280;18639;50.716;7.086;2023-03-20T04:26:32;100770.78;;;8.43;100.00
32131;BME280;18639;50.716;7.086;2023-03-20T04:28:57;100788.16;;;8.55;100.00
32131;BME280;18639;50.716;7.086;2023-03-20T04:31:23;100775.63;;;8.49;100.00
32131;BME280;18639;50.716;7.086;2023-03-20T04:33:48;100783.56;;;8.62;100.00
32131;BME280;18639;50.716;7.086;2023-03-20T04:36:13;100753.78;;;8.39;100.00
32131;BME280;18639;50.716;7.086;2023-03-20T04:38:39;100751.31;;;8.37;100.00
32131;BME280;18639;50.716;7.086;2023-03-20T04:41:05;100702.63;;;8.14;100.00
32131;BME280;18639;50.716;7.086;2023-03-20T04:43:31;100785.91;;;8.66;100.00
32131;BME280;18639;50.716;7.086;2023-03-20T04:45:56;100769.84;;;8.61;100.00
32131;BME280;18639;50.716;7.086;2023-03-20T04:48:22;100774.75;;;8.66;100.00
32131;BME280;18639;50.716;7.086;2023-03-20T04:50:48;100780.84;;;8.65;100.00
32131;BME280;18639;50.716;7.086;2023-03-20T04:53:15;100784.09;;;8.68;100.00
32131;BME280;18639;50.716;7.086;2023-03-20T04:55:41;100771.28;;;8.67;100.00
32131;BME280;18639;50.716;7.086;2023-03-20T04:58:06;100765.53;;;8.62;100.00
32131;BME280;18639;50.716;7.086;2023-03-20T05:00:32;100740.47;;;8.48;100.00
32131;BME280;18639;50.716;7.086;2023-03-20T05:02:57;100756.22;;;8.59;100.00
32131;BME280;18639;50.716;7.086;2023-03-20T05:05:23;100751.97;;;8.58;100.00
32131;BME280;18639;50.716;7.086;2023-03-20T05:07:48;100753.72;;;8.58;100.00
32131;BME280;18639;50.716;7.086;2023-03-20T05:10:14;100759.09;;;8.53;100.00
32131;BME280;18639;50.716;7.086;2023-03-20T05:12:39;100702.34;;;8.20;100.00
32131;BME280;18639;50.716;7.086;2023-03-20T05:15:05;100745.69;;;8.47;100.00
32131;BME280;18639;50.716;7.086;2023-03-20T05:17:31;100734.19;;;8.36;100.00
32131;BME280;18639;50.716;7.086;2023-03-20T05:19:56;100721.19;;;8.21;100.00
32131;BME280;18639;50.716;7.086;2023-03-20T05:22:22;100755.44;;;8.40;100.00
32131;BME280;18639;50.716;7.086;2023-03-20T05:24:47;100751.38;;;8.36;100.00
32131;BME280;18639;50.716;7.086;2023-03-20T05:27:12;100749.22;;;8.27;100.00
32131;BME280;18639;50.716;7.086;2023-03-20T05:29:37;100713.00;;;8.13;100.00
32131;BME280;18639;50.716;7.086;2023-03-20T05:32:03;100754.16;;;8.31;100.00
32131;BME280;18639;50.716;7.086;2023-03-20T05:34:28;100743.28;;;8.25;100.00
32131;BME280;18639;50.716;7.086;2023-03-20T05:36:54;100734.00;;;8.22;100.00
32131;BME280;18639;50.716;7.086;2023-03-20T05:39:19;100740.13;;;8.20;100.00
32131;BME280;18639;50.716;7.086;2023-03-20T05:41:46;100720.94;;;8.08;100.00
32131;BME280;18639;50.716;7.086;2023-03-20T05:44:11;100737.84;;;8.14;100.00
32131;BME280;18639;50.716;7.086;2023-03-20T05:46:36;100747.44;;;8.10;100.00
32131;BME280;18639;50.716;7.086;2023-03-20T05:49:02;100742.59;;;8.04;100.00
32131;BME280;18639;50.716;7.086;2023-03-20T05:51:27;100757.06;;;8.07;100.00
32131;BME280;18639;50.716;7.086;2023-03-20T05:53:52;100738.78;;;7.94;100.00
32131;BME280;18639;50.716;7.086;2023-03-20T05:56:17;100721.84;;;7.71;100.00
32131;BME280;18639;50.716;7.086;2023-03-20T05:58:43;100695.56;;;7.65;100.00
32131;BME280;18639;50.716;7.086;2023-03-20T06:01:08;100745.91;;;7.89;100.00
32131;BME280;18639;50.716;7.086;2023-03-20T06:03:33;100706.47;;;7.70;100.00
32131;BME280;18639;50.716;7.086;2023-03-20T06:05:59;100762.56;;;7.99;100.00
32131;BME280;18639;50.716;7.086;2023-03-20T06:08:24;100744.38;;;7.85;100.00
32131;BME280;18639;50.716;7.086;2023-03-20T06:10:50;100766.72;;;8.01;100.00
32131;BME280;18639;50.716;7.086;2023-03-20T06:13:16;100771.66;;;8.06;100.00
32131;BME280;18639;50.716;7.086;2023-03-20T06:15:41;100757.25;;;8.02;100.00
32131;BME280;18639;50.716;7.086;2023-03-20T06:18:06;100768.88;;;8.11;100.00
32131;BME280;18639;50.716;7.086;2023-03-20T06:20:32;100772.13;;;8.14;100.00
32131;BME280;18639;50.716;7.086;2023-03-20T06:22:57;100766.31;;;8.11;100.00
32131;BME280;18639;50.716;7.086;2023-03-20T06:25:22;100765.31;;;8.13;100.00
32131;BME280;18639;50.716;7.086;2023-03-20T06:27:48;100771.78;;;8.22;100.00
32131;BME280;18639;50.716;7.086;2023-03-20T06:30:15;100763.13;;;8.23;100.00
32131;BME280;18639;50.716;7.086;2023-03-20T06:32:41;100767.38;;;8.24;100.00
32131;BME280;18639;50.716;7.086;2023-03-20T06:35:06;100763.00;;;8.26;100.00
32131;BME280;18639;50.716;7.086;2023-03-20T06:37:33;100776.53;;;8.29;100.00
32131;BME280;18639;50.716;7.086;2023-03-20T06:39:59;100748.38;;;8.26;100.00
32131;BME280;18639;50.716;7.086;2023-03-20T06:42:24;100759.69;;;8.41;100.00
32131;BME280;18639;50.716;7.086;2023-03-20T06:44:50;100757.72;;;8.46;100.00
32131;BME280;18639;50.716;7.086;2023-03-20T06:47:15;100767.56;;;8.55;100.00
32131;BME280;18639;50.716;7.086;2023-03-20T06:49:42;100764.03;;;8.58;100.00
32131;BME280;18639;50.716;7.086;2023-03-20T06:52:13;100762.88;;;8.63;100.00
32131;BME280;18639;50.716;7.086;2023-03-20T06:54:40;100786.97;;;8.79;100.00
32131;BME280;18639;50.716;7.086;2023-03-20T06:57:06;100784.00;;;8.87;100.00
32131;BME280;18639;50.716;7.086;2023-03-20T06:59:32;100767.56;;;8.90;100.00
32131;BME280;18639;50.716;7.086;2023-03-20T07:01:57;100748.44;;;8.94;100.00
32131;BME280;18639;50.716;7.086;2023-03-20T07:04:23;100747.66;;;9.09;100.00
32131;BME280;18639;50.716;7.086;2023-03-20T07:06:48;100760.81;;;9.20;100.00
32131;BME280;18639;50.716;7.086;2023-03-20T07:09:15;100728.94;;;9.05;100.00
32131;BME280;18639;50.716;7.086;2023-03-20T07:11:41;100761.03;;;9.33;100.00
32131;BME280;18639;50.716;7.086;2023-03-20T07:14:07;100778.66;;;9.40;100.00
32131;BME280;18639;50.716;7.086;2023-03-20T07:16:33;100780.19;;;9.44;100.00
32131;BME280;18639;50.716;7.086;2023-03-20T07:18:58;100752.38;;;9.34;100.00
32131;BME280;18639;50.716;7.086;2023-03-20T07:21:23;100776.53;;;9.48;100.00
32131;BME280;18639;50.716;7.086;2023-03-20T07:23:48;100789.69;;;9.59;100.00
32131;BME280;18639;50.716;7.086;2023-03-20T07:26:17;100796.19;;;9.66;100.00
32131;BME280;18639;50.716;7.086;2023-03-20T07:28:42;100780.59;;;9.68;100.00
32131;BME280;18639;50.716;7.086;2023-03-20T07:31:19;100800.66;;;9.79;100.00
32131;BME280;18639;50.716;7.086;2023-03-20T07:33:46;100806.59;;;9.96;100.00
32131;BME280;18639;50.716;7.086;2023-03-20T07:36:11;100808.00;;;10.02;100.00
32131;BME280;18639;50.716;7.086;2023-03-20T07:38:36;100814.03;;;10.18;100.00
32131;BME280;18639;50.716;7.086;2023-03-20T07:41:02;100805.19;;;10.22;100.00
32131;BME280;18639;50.716;7.086;2023-03-20T07:43:27;100828.34;;;10.39;100.00
32131;BME280;18639;50.716;7.086;2023-03-20T07:45:52;100819.34;;;10.46;100.00
32131;BME280;18639;50.716;7.086;2023-03-20T07:48:18;100832.22;;;10.62;100.00
32131;BME280;18639;50.716;7.086;2023-03-20T07:50:43;100822.03;;;10.59;100.00
32131;BME280;18639;50.716;7.086;2023-03-20T07:53:08;100832.09;;;10.64;100.00
32131;BME280;18639;50.716;7.086;2023-03-20T07:55:34;100834.00;;;10.76;100.00
32131;BME280;18639;50.716;7.086;2023-03-20T07:57:59;100826.94;;;10.64;100.00
32131;BME280;18639;50.716;7.086;2023-03-20T08:00:24;100836.53;;;10.62;100.00
32131;BME280;18639;50.716;7.086;2023-03-20T08:02:50;100829.78;;;10.59;100.00
32131;BME280;18639;50.716;7.086;2023-03-20T08:05:15;100821.97;;;10.61;100.00
32131;BME280;18639;50.716;7.086;2023-03-20T08:07:40;100827.31;;;10.58;100.00
32131;BME280;18639;50.716;7.086;2023-03-20T08:10:06;100836.72;;;10.59;100.00
32131;BME280;18639;50.716;7.086;2023-03-20T08:12:32;100827.16;;;10.45;100.00
32131;BME280;18639;50.716;7.086;2023-03-20T08:14:57;100842.00;;;10.41;100.00
32131;BME280;18639;50.716;7.086;2023-03-20T08:17:22;100829.44;;;10.35;100.00
32131;BME280;18639;50.716;7.086;2023-03-20T08:19:47;100845.25;;;10.45;100.00
32131;BME280;18639;50.716;7.086;2023-03-20T08:22:13;100834.41;;;10.38;100.00
32131;BME280;18639;50.716;7.086;2023-03-20T08:24:38;100863.06;;;10.49;100.00
32131;BME280;18639;50.716;7.086;2023-03-20T08:27:03;100863.56;;;10.56;100.00
32131;BME280;18639;50.716;7.086;2023-03-20T08:29:29;100855.88;;;10.54;100.00
32131;BME280;18639;50.716;7.086;2023-03-20T08:31:54;100873.00;;;10.57;100.00
32131;BME280;18639;50.716;7.086;2023-03-20T08:34:20;100846.56;;;10.52;100.00
32131;BME280;18639;50.716;7.086;2023-03-20T08:36:45;100860.97;;;10.56;100.00
32131;BME280;18639;50.716;7.086;2023-03-20T08:39:11;100874.22;;;10.66;100.00
32131;BME280;18639;50.716;7.086;2023-03-20T08:41:36;100845.50;;;10.40;100.00
32131;BME280;18639;50.716;7.086;2023-03-20T08:44:09;100874.97;;;10.68;100.00
32131;BME280;18639;50.716;7.086;2023-03-20T08:46:34;100846.31;;;10.57;100.00
32131;BME280;18639;50.716;7.086;2023-03-20T08:48:59;100858.22;;;10.59;100.00
32131;BME280;18639;50.716;7.086;2023-03-20T08:51:25;100860.53;;;10.64;100.00
32131;BME280;18639;50.716;7.086;2023-03-20T08:53:51;100839.81;;;10.49;100.00
32131;BME280;18639;50.716;7.086;2023-03-20T08:56:16;100858.31;;;10.58;100.00
32131;BME280;18639;50.716;7.086;2023-03-20T08:58:42;100864.97;;;10.62;100.00
32131;BME280;18639;50.716;7.086;2023-03-20T09:01:08;100871.09;;;10.75;100.00
32131;BME280;18639;50.716;7.086;2023-03-20T09:03:35;100836.72;;;10.59;100.00
32131;BME280;18639;50.716;7.086;2023-03-20T09:06:00;100859.69;;;10.79;100.00
32131;BME280;18639;50.716;7.086;2023-03-20T09:08:28;100847.50;;;10.81;100.00
32131;BME280;18639;50.716;7.086;2023-03-20T09:10:53;100822.44;;;10.67;100.00
32131;BME280;18639;50.716;7.086;2023-03-20T09:13:18;100836.03;;;10.85;100.00
32131;BME280;18639;50.716;7.086;2023-03-20T09:15:44;100853.84;;;11.05;100.00
32131;BME280;18639;50.716;7.086;2023-03-20T09:18:09;100841.75;;;11.06;100.00
32131;BME280;18639;50.716;7.086;2023-03-20T09:20:35;100856.38;;;11.21;100.00
32131;BME280;18639;50.716;7.086;2023-03-20T09:23:00;100844.69;;;11.00;100.00
32131;BME280;18639;50.716;7.086;2023-03-20T09:25:25;100836.53;;;10.91;98.93
32131;BME280;18639;50.716;7.086;2023-03-20T09:27:52;100860.09;;;11.01;100.00
32131;BME280;18639;50.716;7.086;2023-03-20T09:30:20;100855.63;;;11.19;100.00
32131;BME280;18639;50.716;7.086;2023-03-20T09:32:46;100854.63;;;11.21;100.00
32131;BME280;18639;50.716;7.086;2023-03-20T09:35:11;100851.63;;;11.27;100.00
32131;BME280;18639;50.716;7.086;2023-03-20T09:37:36;100865.97;;;11.33;100.00
32131;BME280;18639;50.716;7.086;2023-03-20T09:40:02;100872.84;;;11.48;100.00
32131;BME280;18639;50.716;7.086;2023-03-20T09:42:41;100860.34;;;11.55;100.00
32131;BME280;18639;50.716;7.086;2023-03-20T09:45:33;100868.94;;;11.41;100.00
32131;BME280;18639;50.716;7.086;2023-03-20T09:48:29;100856.56;;;11.32;96.09
32131;BME280;18639;50.716;7.086;2023-03-20T09:53:39;100855.53;;;11.34;93.79
32131;BME280;18639;50.716;7.086;2023-03-20T09:56:13;100861.72;;;11.60;99.50
32131;BME280;18639;50.716;7.086;2023-03-20T09:58:40;100868.34;;;11.80;99.34
32131;BME280;18639;50.716;7.086;2023-03-20T10:01:11;100847.22;;;11.72;97.77
32131;BME280;18639;50.716;7.086;2023-03-20T10:03:59;100842.03;;;11.72;93.00
32131;BME280;18639;50.716;7.086;2023-03-20T10:06:26;100866.72;;;11.92;94.65
32131;BME280;18639;50.716;7.086;2023-03-20T10:08:52;100867.94;;;11.86;96.01
32131;BME280;18639;50.716;7.086;2023-03-20T10:16:40;100811.47;;;11.36;91.89
32131;BME280;18639;50.716;7.086;2023-03-20T10:19:24;100856.69;;;11.73;92.74
32131;BME280;18639;50.716;7.086;2023-03-20T10:22:09;100847.63;;;11.80;90.60
32131;BME280;18639;50.716;7.086;2023-03-20T10:24:41;100817.66;;;11.62;94.50
32131;BME280;18639;50.716;7.086;2023-03-20T10:27:17;100834.13;;;11.75;92.30
32131;BME280;18639;50.716;7.086;2023-03-20T10:35:30;100823.56;;;11.64;86.09
32131;BME280;18639;50.716;7.086;2023-03-20T10:38:11;100839.31;;;11.75;87.38
32131;BME280;18639;50.716;7.086;2023-03-20T10:40:43;100841.59;;;11.94;87.21
32131;BME280;18639;50.716;7.086;2023-03-20T10:43:25;100850.09;;;11.81;83.67
32131;BME280;18639;50.716;7.086;2023-03-20T10:46:01;100851.59;;;11.86;82.75
32131;BME280;18639;50.716;7.086;2023-03-20T10:48:33;100846.88;;;11.78;82.23
32131;BME280;18639;50.716;7.086;2023-03-20T10:51:02;100839.53;;;11.70;81.21
32131;BME280;18639;50.716;7.086;2023-03-20T10:55:58;100819.97;;;11.80;81.40
32131;BME280;18639;50.716;7.086;2023-03-20T10:58:27;100826.91;;;11.80;81.38
32131;BME280;18639;50.716;7.086;2023-03-20T11:00:56;100851.72;;;12.11;81.67
32131;BME280;18639;50.716;7.086;2023-03-20T11:03:29;100848.69;;;12.04;79.65
32131;BME280;18639;50.716;7.086;2023-03-20T11:08:40;100842.63;;;11.91;82.36
32131;BME280;18639;50.716;7.086;2023-03-20T11:11:08;100834.94;;;11.61;81.32
32131;BME280;18639;50.716;7.086;2023-03-20T11:13:40;100836.16;;;11.42;81.44
32131;BME280;18639;50.716;7.086;2023-03-20T11:16:15;100835.78;;;11.48;86.75
32131;BME280;18639;50.716;7.086;2023-03-20T11:18:42;100834.75;;;11.50;86.57
32131;BME280;18639;50.716;7.086;2023-03-20T11:21:14;100835.66;;;11.49;84.34
32131;BME280;18639;50.716;7.086;2023-03-20T11:23:40;100828.66;;;11.37;81.75
32131;BME280;18639;50.716;7.086;2023-03-20T11:26:06;100839.75;;;11.53;81.76
32131;BME280;18639;50.716;7.086;2023-03-20T11:33:41;100812.91;;;11.54;76.86
32131;BME280;18639;50.716;7.086;2023-03-20T11:36:19;100832.94;;;11.80;76.09
32131;BME280;18639;50.716;7.086;2023-03-20T11:38:45;100810.63;;;11.64;73.76
32131;BME280;18639;50.716;7.086;2023-03-20T11:41:22;100824.50;;;11.63;74.79
32131;BME280;18639;50.716;7.086;2023-03-20T11:43:47;100813.03;;;11.53;74.40
32131;BME280;18639;50.716;7.086;2023-03-20T11:46:13;100815.81;;;11.64;75.02
32131;BME280;18639;50.716;7.086;2023-03-20T11:48:44;100826.31;;;11.61;72.71
32131;BME280;18639;50.716;7.086;2023-03-20T11:51:16;100814.97;;;11.63;75.13
32131;BME280;18639;50.716;7.086;2023-03-20T11:56:26;100805.28;;;11.53;75.97
32131;BME280;18639;50.716;7.086;2023-03-20T12:01:39;100806.09;;;11.39;78.79
32131;BME280;18639;50.716;7.086;2023-03-20T12:04:19;100806.22;;;11.37;77.23
32131;BME280;18639;50.716;7.086;2023-03-20T12:06:55;100791.59;;;11.22;74.74
32131;BME280;18639;50.716;7.086;2023-03-20T12:09:49;100789.19;;;11.33;75.06
32131;BME280;18639;50.716;7.086;2023-03-20T12:14:56;100797.22;;;11.57;73.78
32131;BME280;18639;50.716;7.086;2023-03-20T12:22:52;100784.91;;;11.89;70.43
32131;BME280;18639;50.716;7.086;2023-03-20T12:25:23;100787.56;;;11.88;69.32
32131;BME280;18639;50.716;7.086;2023-03-20T12:31:00;100776.03;;;11.79;67.28
32131;BME280;18639;50.716;7.086;2023-03-20T12:33:48;100784.91;;;11.89;67.02
32131;BME280;18639;50.716;7.086;2023-03-20T12:36:25;100768.97;;;11.95;71.58
32131;BME280;18639;50.716;7.086;2023-03-20T12:38:53;100762.44;;;11.90;67.71
32131;BME280;18639;50.716;7.086;2023-03-20T12:41:24;100767.63;;;12.02;71.49
32131;BME280;18639;50.716;7.086;2023-03-20T12:44:04;100751.22;;;11.89;66.98
32131;BME280;18639;50.716;7.086;2023-03-20T12:46:41;100771.44;;;11.97;67.51
32131;BME280;18639;50.716;7.086;2023-03-20T12:52:12;100767.47;;;12.05;70.33
32131;BME280;18639;50.716;7.086;2023-03-20T13:00:17;100762.34;;;11.91;80.36
32131;BME280;18639;50.716;7.086;2023-03-20T13:14:03;100742.84;;;12.12;85.99
32131;BME280;18639;50.716;7.086;2023-03-20T13:16:51;100737.09;;;12.07;82.51
32131;BME280;18639;50.716;7.086;2023-03-20T13:19:33;100735.41;;;11.94;81.68
32131;BME280;18639;50.716;7.086;2023-03-20T13:22:17;100747.56;;;12.06;80.48
32131;BME280;18639;50.716;7.086;2023-03-20T13:24:59;100742.41;;;12.18;80.80
32131;BME280;18639;50.716;7.086;2023-03-20T13:37:54;100740.03;;;12.15;77.54
32131;BME280;18639;50.716;7.086;2023-03-20T13:40:29;100743.94;;;12.08;74.36
32131;BME280;18639;50.716;7.086;2023-03-20T13:42:58;100735.44;;;12.06;75.53
32131;BME280;18639;50.716;7.086;2023-03-20T13:45:38;100732.31;;;12.01;74.15
32131;BME280;18639;50.716;7.086;2023-03-20T13:48:21;100731.69;;;11.98;74.55
32131;BME280;18639;50.716;7.086;2023-03-20T13:51:06;100730.44;;;12.03;76.83
32131;BME280;18639;50.716;7.086;2023-03-20T14:04:50;100704.09;;;11.97;75.38
32131;BME280;18639;50.716;7.086;2023-03-20T14:07:33;100710.88;;;11.99;76.60
32131;BME280;18639;50.716;7.086;2023-03-20T14:15:18;100709.63;;;12.05;75.57
32131;BME280;18639;50.716;7.086;2023-03-20T14:17:46;100685.88;;;11.98;78.07
32131;BME280;18639;50.716;7.086;2023-03-20T14:20:25;100697.75;;;12.15;74.55
32131;BME280;18639;50.716;7.086;2023-03-20T14:22:55;100701.31;;;12.27;76.40
32131;BME280;18639;50.716;7.086;2023-03-20T14:25:22;100691.56;;;12.30;75.61
32131;BME280;18639;50.716;7.086;2023-03-20T14:27:58;100681.81;;;12.21;75.39
32131;BME280;18639;50.716;7.086;2023-03-20T14:33:22;100703.19;;;12.37;75.01
32131;BME280;18639;50.716;7.086;2023-03-20T14:36:25;100700.28;;;12.42;75.30
32131;BME280;18639;50.716;7.086;2023-03-20T14:41:51;100710.44;;;12.32;73.76
32131;BME280;18639;50.716;7.086;2023-03-20T14:47:09;100694.44;;;12.26;73.56
32131;BME280;18639;50.716;7.086;2023-03-20T14:52:33;100691.56;;;12.17;73.41
32131;BME280;18639;50.716;7.086;2023-03-20T14:57:42;100692.78;;;12.24;74.40
32131;BME280;18639;50.716;7.086;2023-03-20T15:00:42;100690.53;;;12.33;72.20
32131;BME280;18639;50.716;7.086;2023-03-20T15:03:13;100688.03;;;12.31;73.74
32131;BME280;18639;50.716;7.086;2023-03-20T15:05:40;100685.00;;;12.24;75.61
32131;BME280;18639;50.716;7.086;2023-03-20T15:08:16;100689.47;;;12.22;76.23
32131;BME280;18639;50.716;7.086;2023-03-20T15:10:51;100683.03;;;12.15;76.64
32131;BME280;18639;50.716;7.086;2023-03-20T15:13:18;100669.94;;;12.04;76.47